createdAt,value
2023-03-29T00:00:05.830Z,1.67
2023-03-29T00:02:39.693Z,1.27
2023-03-29T00:05:12.206Z,1.80
2023-03-29T00:07:39.773Z,2.03
2023-03-29T00:10:09.945Z,1.40
2023-03-29T00:12:38.654Z,1.77
2023-03-29T00:15:08.264Z,2.00
2023-03-29T00:17:36.023Z,1.67
2023-03-29T00:20:05.397Z,1.33
2023-03-29T00:22:34.316Z,1.60
2023-03-29T00:25:01.850Z,1.87
2023-03-29T00:27:29.430Z,2.10
2023-03-29T00:29:57.784Z,1.90
2023-03-29T00:32:25.440Z,1.67
2023-03-29T00:34:52.987Z,1.50
2023-03-29T00:37:20.786Z,1.70
2023-03-29T00:39:49.767Z,1.30
2023-03-29T00:42:18.523Z,1.50
2023-03-29T00:45:06.039Z,1.90
2023-03-29T00:47:39.259Z,2.33
2023-03-29T00:50:14.242Z,1.20
2023-03-29T00:52:44.879Z,1.37
2023-03-29T00:55:18.860Z,1.10
2023-03-29T00:57:49.175Z,1.60
2023-03-29T01:00:22.141Z,1.50
2023-03-29T01:02:59.515Z,1.70
2023-03-29T01:05:31.697Z,1.70
2023-03-29T01:08:03.536Z,1.77
2023-03-29T01:10:38.026Z,2.03
2023-03-29T01:13:09.649Z,1.40
2023-03-29T01:15:41.941Z,2.30
2023-03-29T01:18:10.530Z,1.73
2023-03-29T01:20:53.796Z,1.43
2023-03-29T01:23:39.842Z,1.73
2023-03-29T01:26:19.632Z,2.10
2023-03-29T01:28:53.948Z,1.43
2023-03-29T01:31:25.624Z,2.27
2023-03-29T01:34:00.380Z,1.70
2023-03-29T01:36:34.963Z,1.67
2023-03-29T01:39:06.998Z,1.57
2023-03-29T01:41:42.340Z,1.93
2023-03-29T01:44:14.662Z,1.80
2023-03-29T01:46:47.602Z,1.50
2023-03-29T01:49:22.560Z,1.30
2023-03-29T01:51:54.464Z,1.60
2023-03-29T01:54:28.887Z,2.13
2023-03-29T01:56:59.237Z,2.50
2023-03-29T01:59:32.229Z,2.50
2023-03-29T02:02:03.256Z,2.33
2023-03-29T02:04:40.279Z,3.17
2023-03-29T02:07:10.940Z,2.80
2023-03-29T02:09:39.687Z,2.53
2023-03-29T02:12:10.048Z,3.30
2023-03-29T02:14:39.551Z,2.43
2023-03-29T02:17:18.223Z,2.33
2023-03-29T02:19:50.065Z,2.63
2023-03-29T02:22:23.873Z,3.07
2023-03-29T02:24:54.860Z,2.23
2023-03-29T02:27:22.388Z,2.40
2023-03-29T02:29:51.349Z,2.40
2023-03-29T02:32:22.830Z,2.80
2023-03-29T02:34:58.702Z,3.50
2023-03-29T02:37:30.147Z,2.80
2023-03-29T02:40:00.048Z,2.70
2023-03-29T02:42:29.394Z,2.77
2023-03-29T02:45:01.238Z,3.63
2023-03-29T02:47:33.128Z,2.60
2023-03-29T02:50:01.317Z,2.67
2023-03-29T02:52:35.095Z,2.87
2023-03-29T02:55:05.390Z,2.57
2023-03-29T02:57:33.002Z,2.33
2023-03-29T03:00:06.899Z,2.87
2023-03-29T03:02:35.400Z,3.53
2023-03-29T03:05:03.692Z,3.20
2023-03-29T03:07:31.294Z,2.60
2023-03-29T03:09:58.827Z,3.07
2023-03-29T03:12:27.655Z,3.10
2023-03-29T03:14:55.533Z,3.17
2023-03-29T03:17:24.521Z,3.67
2023-03-29T03:19:53.111Z,2.73
2023-03-29T03:22:21.201Z,2.83
2023-03-29T03:24:49.229Z,2.93
2023-03-29T03:27:20.508Z,2.80
2023-03-29T03:29:48.577Z,3.00
2023-03-29T03:32:18.926Z,3.03
2023-03-29T03:34:56.630Z,2.70
2023-03-29T03:37:27.435Z,3.17
2023-03-29T03:39:55.121Z,2.70
2023-03-29T03:42:23.789Z,2.47
2023-03-29T03:44:51.669Z,3.37
2023-03-29T03:47:46.546Z,2.47
2023-03-29T03:50:26.947Z,2.73
2023-03-29T03:52:54.507Z,2.90
2023-03-29T03:55:23.650Z,2.83
2023-03-29T03:58:00.494Z,2.37
2023-03-29T04:00:29.630Z,2.90
2023-03-29T04:03:14.226Z,2.63
2023-03-29T04:05:45.663Z,2.37
2023-03-29T04:08:15.335Z,2.90
2023-03-29T04:11:02.066Z,2.73
2023-03-29T04:13:37.028Z,2.70
2023-03-29T04:16:25.118Z,1.80
2023-03-29T04:18:55.898Z,2.50
2023-03-29T04:21:25.361Z,2.93
2023-03-29T04:23:53.871Z,3.33
2023-03-29T04:26:22.241Z,2.33
2023-03-29T04:28:59.208Z,2.70
2023-03-29T04:31:37.806Z,2.83
2023-03-29T04:34:20.312Z,2.70
2023-03-29T04:36:50.752Z,2.97
2023-03-29T04:39:22.131Z,3.00
2023-03-29T04:41:55.272Z,2.70
2023-03-29T04:44:28.008Z,3.10
2023-03-29T04:46:58.447Z,3.20
2023-03-29T04:49:48.366Z,3.67
2023-03-29T04:52:26.340Z,3.63
2023-03-29T04:54:55.264Z,4.00
2023-03-29T04:57:34.102Z,3.40
2023-03-29T05:00:26.994Z,3.30
2023-03-29T05:03:08.084Z,3.10
2023-03-29T05:05:39.976Z,3.43
2023-03-29T05:08:10.630Z,3.30
2023-03-29T05:10:50.803Z,3.63
2023-03-29T05:13:18.640Z,3.90
2023-03-29T05:15:47.517Z,3.80
2023-03-29T05:18:16.246Z,4.40
2023-03-29T05:20:44.008Z,3.13
2023-03-29T05:23:18.445Z,4.03
2023-03-29T05:26:07.949Z,4.33
2023-03-29T05:28:35.703Z,4.03
2023-03-29T05:31:06.287Z,4.57
2023-03-29T05:33:36.650Z,4.03
2023-03-29T05:36:08.493Z,4.70
2023-03-29T05:38:41.554Z,3.83
2023-03-29T05:41:10.726Z,4.10
2023-03-29T05:43:57.802Z,3.60
2023-03-29T05:46:26.953Z,4.83
2023-03-29T05:48:57.569Z,4.70
2023-03-29T05:51:46.052Z,4.57
2023-03-29T05:54:15.014Z,4.17
2023-03-29T05:56:42.611Z,4.30
2023-03-29T05:59:10.473Z,3.90
2023-03-29T06:01:40.222Z,5.27
2023-03-29T06:04:10.704Z,4.07
2023-03-29T06:06:44.349Z,4.80
2023-03-29T06:09:12.244Z,4.20
2023-03-29T06:11:47.799Z,4.83
2023-03-29T06:14:37.337Z,4.17
2023-03-29T06:17:18.902Z,4.50
2023-03-29T06:19:47.643Z,4.30
2023-03-29T06:22:17.023Z,5.20
2023-03-29T06:24:44.563Z,5.03
2023-03-29T06:27:24.433Z,5.17
2023-03-29T06:29:52.878Z,4.50
2023-03-29T06:32:20.910Z,4.37
2023-03-29T06:34:52.123Z,4.17
2023-03-29T06:37:53.900Z,4.50
2023-03-29T06:40:37.911Z,4.87
2023-03-29T06:43:07.552Z,4.13
2023-03-29T06:45:47.596Z,4.10
2023-03-29T06:48:25.870Z,3.90
2023-03-29T06:50:54.518Z,4.70
2023-03-29T06:53:26.199Z,4.40
2023-03-29T06:55:59.530Z,4.47
2023-03-29T06:58:46.892Z,5.03
2023-03-29T07:01:28.468Z,5.67
2023-03-29T07:04:05.696Z,5.67
2023-03-29T07:06:40.343Z,4.20
2023-03-29T07:09:07.960Z,4.87
2023-03-29T07:12:05.008Z,4.03
2023-03-29T07:14:34.324Z,4.60
2023-03-29T07:17:02.306Z,4.50
2023-03-29T07:19:34.017Z,4.70
2023-03-29T07:22:29.939Z,5.20
2023-03-29T07:25:01.190Z,4.70
2023-03-29T07:27:30.026Z,5.00
2023-03-29T07:29:59.272Z,4.33
2023-03-29T07:32:28.032Z,4.60
2023-03-29T07:35:13.036Z,3.80
2023-03-29T07:37:42.844Z,4.43
2023-03-29T07:40:16.115Z,4.40
2023-03-29T07:42:59.682Z,5.07
2023-03-29T07:45:34.573Z,3.37
2023-03-29T07:48:07.477Z,4.63
2023-03-29T07:50:56.695Z,4.40
2023-03-29T07:53:30.375Z,4.27
2023-03-29T07:56:00.214Z,5.00
2023-03-29T07:58:53.849Z,4.73
2023-03-29T08:01:23.510Z,4.03
2023-03-29T08:04:26.608Z,4.20
2023-03-29T08:07:32.844Z,4.13
2023-03-29T08:10:17.162Z,3.20
2023-03-29T08:13:07.290Z,4.20
2023-03-29T08:15:58.256Z,3.90
2023-03-29T08:18:40.867Z,4.30
2023-03-29T08:21:09.180Z,4.20
2023-03-29T08:23:37.057Z,3.90
2023-03-29T08:26:15.870Z,4.40
2023-03-29T08:28:44.237Z,3.60
2023-03-29T08:31:12.805Z,3.83
2023-03-29T08:33:46.719Z,3.73
2023-03-29T08:36:34.935Z,4.13
2023-03-29T08:39:10.153Z,3.93
2023-03-29T08:41:47.937Z,3.93
2023-03-29T08:44:28.188Z,3.90
2023-03-29T08:47:07.072Z,3.87
2023-03-29T08:49:47.115Z,3.63
2023-03-29T08:52:23.459Z,3.83
2023-03-29T08:54:56.872Z,4.10
2023-03-29T08:58:07.500Z,3.47
2023-03-29T09:00:39.768Z,3.30
2023-03-29T09:03:15.683Z,3.50
2023-03-29T09:05:48.893Z,3.63
2023-03-29T09:08:23.309Z,4.30
2023-03-29T09:11:20.027Z,3.50
2023-03-29T09:14:04.581Z,3.70
2023-03-29T09:16:38.352Z,5.00
2023-03-29T09:19:16.466Z,3.73
2023-03-29T09:21:51.711Z,3.60
2023-03-29T09:24:38.254Z,3.80
2023-03-29T09:27:22.336Z,4.10
2023-03-29T09:30:14.525Z,3.10
2023-03-29T09:32:54.212Z,3.20
2023-03-29T09:35:32.839Z,4.00
2023-03-29T09:38:03.880Z,3.93
2023-03-29T09:40:39.406Z,4.00
2023-03-29T09:43:15.319Z,3.27
2023-03-29T09:45:43.777Z,3.93
2023-03-29T09:48:14.740Z,4.03
2023-03-29T09:50:51.131Z,3.60
2023-03-29T09:53:22.464Z,4.20
2023-03-29T09:56:02.448Z,4.87
2023-03-29T09:58:48.855Z,3.80
2023-03-29T10:01:20.209Z,3.60
2023-03-29T10:03:52.610Z,4.20
2023-03-29T10:06:25.417Z,4.57
2023-03-29T10:08:59.254Z,3.80
2023-03-29T10:11:40.583Z,3.60
2023-03-29T10:14:16.488Z,3.80
2023-03-29T10:16:47.931Z,4.10
2023-03-29T10:19:22.303Z,5.20
2023-03-29T10:21:51.627Z,4.10
2023-03-29T10:24:21.749Z,4.17
2023-03-29T10:26:55.228Z,4.27
2023-03-29T10:29:24.204Z,4.20
2023-03-29T10:31:52.846Z,4.00
2023-03-29T10:34:25.243Z,4.43
2023-03-29T10:36:57.610Z,4.70
2023-03-29T10:39:29.461Z,4.13
2023-03-29T10:41:59.069Z,4.13
2023-03-29T10:44:31.576Z,3.57
2023-03-29T10:47:09.698Z,3.40
2023-03-29T10:49:42.056Z,3.53
2023-03-29T10:52:10.167Z,3.40
2023-03-29T10:54:39.037Z,3.60
2023-03-29T10:57:10.370Z,3.67
2023-03-29T10:59:47.836Z,5.50
2023-03-29T11:02:40.112Z,3.90
2023-03-29T11:05:29.351Z,3.97
2023-03-29T11:08:14.896Z,4.97
2023-03-29T11:10:55.954Z,3.80
2023-03-29T11:13:30.916Z,3.10
2023-03-29T11:16:11.022Z,3.53
2023-03-29T11:19:11.849Z,3.40
2023-03-29T11:21:50.282Z,3.70
2023-03-29T11:24:30.610Z,4.40
2023-03-29T11:27:13.775Z,3.40
2023-03-29T11:29:50.046Z,3.80
2023-03-29T11:32:30.033Z,4.60
2023-03-29T11:35:08.920Z,4.93
2023-03-29T11:37:47.891Z,5.00
2023-03-29T11:40:30.070Z,4.37
2023-03-29T11:43:03.119Z,4.80
2023-03-29T11:45:39.605Z,5.03
2023-03-29T11:48:16.498Z,4.83
2023-03-29T11:50:49.418Z,4.70
2023-03-29T11:53:25.446Z,5.03
2023-03-29T11:55:55.081Z,4.03
2023-03-29T11:58:31.045Z,4.07
2023-03-29T12:01:04.243Z,4.90
2023-03-29T12:03:39.211Z,4.73
2023-03-29T12:06:13.787Z,4.63
2023-03-29T12:08:46.790Z,5.43
2023-03-29T12:11:21.500Z,6.13
2023-03-29T12:13:53.577Z,4.87
2023-03-29T12:16:27.395Z,4.60
2023-03-29T12:19:00.039Z,5.20
2023-03-29T12:21:30.164Z,5.30
2023-03-29T12:23:59.050Z,4.67
2023-03-29T12:26:40.843Z,5.33
2023-03-29T12:29:29.442Z,6.03
2023-03-29T12:32:06.341Z,4.57
2023-03-29T12:34:59.698Z,4.50
2023-03-29T12:37:52.886Z,4.67
2023-03-29T12:41:03.008Z,5.43
2023-03-29T12:44:04.518Z,4.90
2023-03-29T12:46:41.256Z,5.50
2023-03-29T12:49:15.232Z,5.13
2023-03-29T12:51:43.794Z,5.17
2023-03-29T12:54:16.446Z,5.00
2023-03-29T12:56:58.077Z,5.00
2023-03-29T12:59:28.645Z,4.23
2023-03-29T13:02:20.754Z,4.50
2023-03-29T13:04:54.204Z,4.77
2023-03-29T13:07:32.625Z,4.30
2023-03-29T13:10:03.500Z,5.13
2023-03-29T13:12:37.774Z,4.10
2023-03-29T13:15:09.291Z,4.10
2023-03-29T13:17:47.941Z,4.03
2023-03-29T13:20:31.626Z,4.70
2023-03-29T13:23:17.380Z,4.20
2023-03-29T13:26:12.688Z,3.90
2023-03-29T13:28:57.195Z,4.23
2023-03-29T13:31:35.371Z,4.03
2023-03-29T13:34:12.715Z,3.73
2023-03-29T13:36:50.439Z,4.63
2023-03-29T13:39:24.343Z,4.43
2023-03-29T13:41:54.230Z,3.67
2023-03-29T13:44:35.946Z,4.37
2023-03-29T13:47:06.824Z,4.17
2023-03-29T13:49:36.597Z,4.40
2023-03-29T13:52:15.847Z,3.50
2023-03-29T13:54:50.003Z,4.03
2023-03-29T13:57:21.367Z,3.97
2023-03-29T14:00:00.688Z,3.83
2023-03-29T14:02:39.039Z,3.40
2023-03-29T14:05:13.769Z,3.83
2023-03-29T14:07:47.273Z,3.43
2023-03-29T14:10:16.090Z,4.67
2023-03-29T14:12:43.775Z,3.70
2023-03-29T14:15:22.058Z,4.63
2023-03-29T14:17:50.806Z,4.73
2023-03-29T14:20:20.929Z,4.67
2023-03-29T14:22:48.739Z,4.43
2023-03-29T14:25:19.152Z,4.87
2023-03-29T14:27:47.005Z,3.90
2023-03-29T14:30:28.226Z,4.00
2023-03-29T14:32:56.632Z,4.20
2023-03-29T14:35:33.052Z,4.00
2023-03-29T14:38:02.385Z,4.20
2023-03-29T14:40:32.412Z,5.60
2023-03-29T14:43:05.217Z,4.00
2023-03-29T14:45:33.034Z,4.47
2023-03-29T14:48:01.631Z,4.03
2023-03-29T14:50:31.823Z,4.03
2023-03-29T14:53:01.339Z,5.00
2023-03-29T14:55:30.797Z,4.30
2023-03-29T14:57:58.296Z,4.50
2023-03-29T15:00:29.958Z,4.27
2023-03-29T15:02:59.844Z,4.67
2023-03-29T15:05:35.674Z,3.90
2023-03-29T15:08:04.348Z,4.90
2023-03-29T15:10:34.251Z,4.40
2023-03-29T15:13:03.405Z,4.00
2023-03-29T15:15:34.602Z,4.30
2023-03-29T15:18:04.004Z,4.10
2023-03-29T15:20:37.326Z,4.07
2023-03-29T15:23:20.622Z,4.03
2023-03-29T15:25:52.226Z,4.40
2023-03-29T15:28:29.798Z,4.13
2023-03-29T15:33:36.539Z,4.23
2023-03-29T15:36:07.645Z,4.53
2023-03-29T15:38:43.322Z,4.73
2023-03-29T15:41:12.475Z,4.57
2023-03-29T15:43:41.341Z,5.10
2023-03-29T15:46:09.283Z,3.70
2023-03-29T15:48:36.775Z,4.47
2023-03-29T15:51:06.980Z,4.60
2023-03-29T15:53:36.233Z,4.57
2023-03-29T15:56:07.767Z,4.17
2023-03-29T15:58:39.360Z,4.60
2023-03-29T16:01:15.996Z,5.17
2023-03-29T16:03:47.005Z,4.80
2023-03-29T16:06:17.378Z,4.83
2023-03-29T16:08:45.940Z,4.67
2023-03-29T16:11:13.434Z,4.37
2023-03-29T16:13:41.009Z,5.07
2023-03-29T16:16:11.279Z,4.70
2023-03-29T16:18:39.195Z,6.20
2023-03-29T16:21:08.039Z,4.87
2023-03-29T16:23:37.724Z,5.47
2023-03-29T16:26:07.089Z,5.50
2023-03-29T16:28:34.717Z,5.60
2023-03-29T16:31:02.238Z,5.30
2023-03-29T16:33:29.832Z,6.20
2023-03-29T16:35:57.803Z,5.30
2023-03-29T16:38:25.858Z,5.27
2023-03-29T16:40:54.843Z,6.70
2023-03-29T16:43:22.405Z,5.13
2023-03-29T16:45:50.241Z,5.10
2023-03-29T16:48:19.886Z,5.40
2023-03-29T16:50:49.215Z,6.53
2023-03-29T16:53:18.178Z,6.13
2023-03-29T16:55:46.499Z,5.60
2023-03-29T16:58:16.715Z,6.83
2023-03-29T17:00:47.220Z,5.43
2023-03-29T17:03:16.784Z,6.03
2023-03-29T17:05:47.867Z,6.13
2023-03-29T17:08:16.340Z,5.70
2023-03-29T17:10:45.974Z,6.20
2023-03-29T17:13:14.976Z,6.97
2023-03-29T17:15:42.968Z,5.67
2023-03-29T17:18:10.865Z,6.27
2023-03-29T17:20:39.842Z,6.13
2023-03-29T17:23:08.757Z,6.00
2023-03-29T17:25:37.551Z,6.77
2023-03-29T17:28:05.575Z,6.60
2023-03-29T17:30:36.159Z,6.30
2023-03-29T17:33:04.482Z,5.70
2023-03-29T17:35:32.636Z,7.33
2023-03-29T17:38:00.441Z,6.87
2023-03-29T17:40:28.064Z,5.93
2023-03-29T17:42:55.608Z,6.93
2023-03-29T17:45:23.396Z,5.90
2023-03-29T17:47:52.343Z,6.67
2023-03-29T17:50:21.106Z,6.40
2023-03-29T17:52:50.436Z,5.93
2023-03-29T17:55:18.095Z,7.43
2023-03-29T17:57:49.307Z,7.30
2023-03-29T18:00:18.128Z,5.03
2023-03-29T18:02:45.874Z,6.00
2023-03-29T18:05:14.915Z,5.67
2023-03-29T18:07:42.578Z,6.80
2023-03-29T18:10:11.236Z,6.17
2023-03-29T18:12:38.890Z,6.60
2023-03-29T18:15:07.840Z,5.10
2023-03-29T18:17:36.489Z,6.17
2023-03-29T18:20:09.024Z,5.50
2023-03-29T18:22:38.130Z,5.40
2023-03-29T18:25:07.333Z,6.50
2023-03-29T18:27:37.897Z,6.83
2023-03-29T18:30:08.422Z,6.30
2023-03-29T18:32:36.510Z,7.20
2023-03-29T18:35:06.279Z,5.90
2023-03-29T18:37:36.226Z,4.87
2023-03-29T18:40:09.066Z,7.07
2023-03-29T18:42:36.870Z,5.90
2023-03-29T18:45:05.323Z,6.17
2023-03-29T18:47:33.220Z,5.90
2023-03-29T18:50:02.321Z,5.97
2023-03-29T18:52:29.923Z,7.43
2023-03-29T18:54:57.410Z,5.07
2023-03-29T18:57:26.448Z,7.43
2023-03-29T18:59:54.225Z,6.70
2023-03-29T19:02:21.856Z,7.70
2023-03-29T19:04:50.046Z,8.07
2023-03-29T19:07:17.613Z,7.10
2023-03-29T19:09:45.494Z,8.27
2023-03-29T19:12:13.296Z,7.63
2023-03-29T19:14:44.517Z,7.13
2023-03-29T19:17:12.547Z,8.10
2023-03-29T19:19:40.272Z,7.90
2023-03-29T19:22:07.749Z,8.13
2023-03-29T19:24:36.602Z,7.00
2023-03-29T19:27:04.337Z,7.00
2023-03-29T19:29:33.595Z,7.50
2023-03-29T19:32:03.029Z,7.00
2023-03-29T19:34:30.862Z,7.90
2023-03-29T19:37:00.351Z,9.17
2023-03-29T19:39:29.422Z,7.63
2023-03-29T19:41:57.450Z,8.13
2023-03-29T19:44:25.216Z,6.30
2023-03-29T19:46:52.977Z,9.93
2023-03-29T19:49:21.846Z,10.77
2023-03-29T19:51:49.322Z,8.57
2023-03-29T19:54:17.492Z,8.70
2023-03-29T19:56:45.424Z,8.40
2023-03-29T19:59:14.948Z,9.80
2023-03-29T20:01:50.599Z,7.10
2023-03-29T20:04:18.277Z,6.70
2023-03-29T20:06:47.689Z,8.00
2023-03-29T20:09:16.197Z,6.80
2023-03-29T20:11:44.513Z,8.77
2023-03-29T20:14:12.257Z,9.80
2023-03-29T20:16:41.595Z,8.40
2023-03-29T20:19:10.554Z,8.10
2023-03-29T20:21:38.165Z,8.17
2023-03-29T20:24:08.581Z,7.00
2023-03-29T20:26:36.511Z,8.50
2023-03-29T20:29:04.625Z,7.47
2023-03-29T20:31:32.283Z,7.60
2023-03-29T20:33:59.906Z,8.80
2023-03-29T20:36:30.533Z,8.37
2023-03-29T20:39:00.239Z,8.10
2023-03-29T20:41:29.212Z,7.57
2023-03-29T20:43:59.325Z,7.10
2023-03-29T20:46:33.189Z,7.70
2023-03-29T20:49:01.313Z,8.40
2023-03-29T20:51:30.278Z,7.77
2023-03-29T20:54:02.769Z,9.30
2023-03-29T20:56:33.262Z,9.60
2023-03-29T20:59:01.498Z,9.20
2023-03-29T21:01:31.178Z,8.20
2023-03-29T21:03:58.957Z,8.57
2023-03-29T21:06:26.483Z,7.60
2023-03-29T21:08:54.115Z,6.80
2023-03-29T21:11:21.862Z,6.90
2023-03-29T21:13:52.736Z,7.70
2023-03-29T21:16:20.402Z,8.70
2023-03-29T21:18:48.118Z,7.73
2023-03-29T21:21:15.729Z,8.37
2023-03-29T21:23:43.256Z,8.27
2023-03-29T21:26:11.228Z,8.93
2023-03-29T21:28:38.790Z,8.47
2023-03-29T21:31:08.990Z,7.20
2023-03-29T21:33:37.480Z,7.47
2023-03-29T21:36:05.608Z,6.77
2023-03-29T21:38:33.342Z,7.40
2023-03-29T21:41:02.458Z,8.13
2023-03-29T21:43:30.403Z,6.43
2023-03-29T21:45:58.025Z,6.80
2023-03-29T21:48:27.218Z,7.30
2023-03-29T21:50:54.812Z,8.20
2023-03-29T21:53:22.534Z,8.17
2023-03-29T21:55:50.323Z,6.97
2023-03-29T21:58:18.331Z,7.20
2023-03-29T22:00:46.729Z,7.03
2023-03-29T22:03:14.728Z,6.97
2023-03-29T22:05:45.081Z,7.57
2023-03-29T22:08:12.994Z,6.30
2023-03-29T22:10:42.250Z,7.03
2023-03-29T22:13:10.213Z,7.30
2023-03-29T22:15:38.949Z,6.70
2023-03-29T22:18:08.181Z,6.47
2023-03-29T22:20:35.921Z,6.00
2023-03-29T22:23:04.827Z,6.77
2023-03-29T22:25:32.570Z,6.27
2023-03-29T22:28:00.531Z,6.20
2023-03-29T22:30:30.038Z,6.20
2023-03-29T22:32:57.761Z,5.67
2023-03-29T22:35:25.639Z,5.73
2023-03-29T22:37:53.376Z,7.03
2023-03-29T22:40:22.867Z,6.00
2023-03-29T22:42:50.926Z,6.20
2023-03-29T22:45:18.795Z,7.30
2023-03-29T22:47:46.637Z,6.87
2023-03-29T22:50:14.457Z,6.13
2023-03-29T22:52:42.138Z,6.30
2023-03-29T22:55:10.451Z,5.40
2023-03-29T22:57:39.741Z,6.47
2023-03-29T23:00:10.431Z,5.20
2023-03-29T23:02:38.260Z,6.70
2023-03-29T23:05:06.926Z,5.53
2023-03-29T23:07:36.534Z,5.80
2023-03-29T23:10:06.467Z,6.33
2023-03-29T23:12:36.452Z,5.77
2023-03-29T23:15:08.170Z,6.67
2023-03-29T23:17:37.363Z,7.10
2023-03-29T23:20:07.309Z,6.57
2023-03-29T23:22:36.445Z,5.50
2023-03-29T23:25:04.778Z,5.60
2023-03-29T23:27:33.143Z,6.13
2023-03-29T23:30:01.611Z,6.60
2023-03-29T23:32:30.802Z,5.53
2023-03-29T23:34:59.974Z,6.17
2023-03-29T23:37:28.009Z,6.40
2023-03-29T23:39:55.812Z,6.10
2023-03-29T23:42:23.508Z,6.37
2023-03-29T23:44:51.131Z,5.70
2023-03-29T23:47:18.788Z,5.87
2023-03-29T23:49:48.332Z,7.00
2023-03-29T23:52:16.326Z,5.47
2023-03-29T23:54:44.013Z,5.80
2023-03-29T23:57:11.670Z,6.10
2023-03-29T23:59:40.014Z,5.83
